sensor_id;sensor_type;location;lat;lon;timestamp;P1;durP1;ratioP1;P2;durP2;ratioP2
77051;SDS011;65980;44.898;8.602;2024-01-30T00:00:29;74.10;;;28.38;;
77051;SDS011;65980;44.898;8.602;2024-01-30T00:03:33;75.68;;;29.33;;
77051;SDS011;65980;44.898;8.602;2024-01-30T00:06:38;132.13;;;32.97;;
77051;SDS011;65980;44.898;8.602;2024-01-30T00:09:41;137.73;;;29.73;;
77051;SDS011;65980;44.898;8.602;2024-01-30T00:12:46;107.72;;;31.27;;
77051;SDS011;65980;44.898;8.602;2024-01-30T00:15:51;83.65;;;29.48;;
77051;SDS011;65980;44.898;8.602;2024-01-30T00:18:55;80.05;;;29.50;;
77051;SDS011;65980;44.898;8.602;2024-01-30T00:21:58;120.07;;;30.55;;
77051;SDS011;65980;44.898;8.602;2024-01-30T00:25:03;75.40;;;29.85;;
77051;SDS011;65980;44.898;8.602;2024-01-30T00:28:08;103.70;;;31.45;;
77051;SDS011;65980;44.898;8.602;2024-01-30T00:31:11;157.38;;;31.38;;
77051;SDS011;65980;44.898;8.602;2024-01-30T00:34:16;77.82;;;29.60;;
77051;SDS011;65980;44.898;8.602;2024-01-30T00:37:19;78.50;;;29.45;;
77051;SDS011;65980;44.898;8.602;2024-01-30T00:40:24;80.03;;;30.55;;
77051;SDS011;65980;44.898;8.602;2024-01-30T00:43:27;154.68;;;32.88;;
77051;SDS011;65980;44.898;8.602;2024-01-30T00:46:32;74.20;;;29.20;;
77051;SDS011;65980;44.898;8.602;2024-01-30T00:49:37;90.10;;;30.33;;
77051;SDS011;65980;44.898;8.602;2024-01-30T00:52:42;75.35;;;28.75;;
77051;SDS011;65980;44.898;8.602;2024-01-30T00:55:48;74.50;;;29.17;;
77051;SDS011;65980;44.898;8.602;2024-01-30T00:58:52;91.35;;;30.63;;
77051;SDS011;65980;44.898;8.602;2024-01-30T01:01:57;109.93;;;30.70;;
77051;SDS011;65980;44.898;8.602;2024-01-30T01:05:02;67.18;;;28.52;;
77051;SDS011;65980;44.898;8.602;2024-01-30T01:08:06;120.00;;;33.42;;
77051;SDS011;65980;44.898;8.602;2024-01-30T01:11:11;69.03;;;28.92;;
77051;SDS011;65980;44.898;8.602;2024-01-30T01:14:16;67.47;;;29.27;;
77051;SDS011;65980;44.898;8.602;2024-01-30T01:17:19;70.70;;;29.77;;
77051;SDS011;65980;44.898;8.602;2024-01-30T01:20:24;73.30;;;27.90;;
77051;SDS011;65980;44.898;8.602;2024-01-30T01:23:29;79.28;;;28.02;;
77051;SDS011;65980;44.898;8.602;2024-01-30T01:26:33;80.70;;;29.17;;
77051;SDS011;65980;44.898;8.602;2024-01-30T01:29:37;65.75;;;28.98;;
77051;SDS011;65980;44.898;8.602;2024-01-30T01:32:42;68.13;;;29.42;;
77051;SDS011;65980;44.898;8.602;2024-01-30T01:35:53;84.30;;;28.73;;
77051;SDS011;65980;44.898;8.602;2024-01-30T01:38:56;64.13;;;27.63;;
77051;SDS011;65980;44.898;8.602;2024-01-30T01:42:03;99.18;;;29.05;;
77051;SDS011;65980;44.898;8.602;2024-01-30T01:45:08;109.60;;;29.75;;
77051;SDS011;65980;44.898;8.602;2024-01-30T01:48:13;95.90;;;29.88;;
77051;SDS011;65980;44.898;8.602;2024-01-30T01:51:17;103.47;;;31.27;;
77051;SDS011;65980;44.898;8.602;2024-01-30T01:54:22;92.30;;;28.63;;
77051;SDS011;65980;44.898;8.602;2024-01-30T01:57:27;66.53;;;28.52;;
77051;SDS011;65980;44.898;8.602;2024-01-30T02:00:32;64.72;;;28.33;;
77051;SDS011;65980;44.898;8.602;2024-01-30T02:03:37;68.95;;;29.20;;
77051;SDS011;65980;44.898;8.602;2024-01-30T02:06:42;154.65;;;30.90;;
77051;SDS011;65980;44.898;8.602;2024-01-30T02:09:47;67.43;;;28.00;;
77051;SDS011;65980;44.898;8.602;2024-01-30T02:12:52;85.25;;;28.83;;
77051;SDS011;65980;44.898;8.602;2024-01-30T02:15:56;68.10;;;27.50;;
77051;SDS011;65980;44.898;8.602;2024-01-30T02:19:00;131.02;;;29.15;;
77051;SDS011;65980;44.898;8.602;2024-01-30T02:22:08;64.47;;;28.20;;
77051;SDS011;65980;44.898;8.602;2024-01-30T02:25:12;85.68;;;28.08;;
77051;SDS011;65980;44.898;8.602;2024-01-30T02:28:16;68.90;;;26.63;;
77051;SDS011;65980;44.898;8.602;2024-01-30T02:31:20;71.80;;;28.63;;
77051;SDS011;65980;44.898;8.602;2024-01-30T02:34:24;96.40;;;30.25;;
77051;SDS011;65980;44.898;8.602;2024-01-30T02:37:29;106.28;;;27.88;;
77051;SDS011;65980;44.898;8.602;2024-01-30T02:40:32;82.10;;;27.98;;
77051;SDS011;65980;44.898;8.602;2024-01-30T02:43:36;109.60;;;31.73;;
77051;SDS011;65980;44.898;8.602;2024-01-30T02:46:40;128.85;;;32.65;;
77051;SDS011;65980;44.898;8.602;2024-01-30T02:49:44;81.97;;;29.25;;
77051;SDS011;65980;44.898;8.602;2024-01-30T02:52:49;129.40;;;32.58;;
77051;SDS011;65980;44.898;8.602;2024-01-30T02:55:53;107.90;;;31.25;;
77051;SDS011;65980;44.898;8.602;2024-01-30T02:58:57;83.78;;;29.15;;
77051;SDS011;65980;44.898;8.602;2024-01-30T03:02:01;76.10;;;30.00;;
77051;SDS011;65980;44.898;8.602;2024-01-30T03:05:06;77.28;;;32.28;;
77051;SDS011;65980;44.898;8.602;2024-01-30T03:08:10;92.47;;;30.52;;
77051;SDS011;65980;44.898;8.602;2024-01-30T03:14:44;66.05;;;28.60;;
77051;SDS011;65980;44.898;8.602;2024-01-30T03:17:49;62.70;;;27.83;;
77051;SDS011;65980;44.898;8.602;2024-01-30T03:20:53;70.97;;;29.58;;
77051;SDS011;65980;44.898;8.602;2024-01-30T03:23:57;68.75;;;27.45;;
77051;SDS011;65980;44.898;8.602;2024-01-30T03:27:02;67.15;;;25.48;;
77051;SDS011;65980;44.898;8.602;2024-01-30T03:30:06;67.05;;;27.15;;
77051;SDS011;65980;44.898;8.602;2024-01-30T03:33:12;58.30;;;26.85;;
77051;SDS011;65980;44.898;8.602;2024-01-30T03:36:17;59.42;;;25.70;;
77051;SDS011;65980;44.898;8.602;2024-01-30T03:39:21;66.35;;;26.73;;
77051;SDS011;65980;44.898;8.602;2024-01-30T03:42:25;55.00;;;24.65;;
77051;SDS011;65980;44.898;8.602;2024-01-30T03:45:29;114.65;;;25.75;;
77051;SDS011;65980;44.898;8.602;2024-01-30T03:48:33;52.38;;;23.45;;
77051;SDS011;65980;44.898;8.602;2024-01-30T03:51:37;51.63;;;23.38;;
77051;SDS011;65980;44.898;8.602;2024-01-30T03:54:41;50.78;;;23.20;;
77051;SDS011;65980;44.898;8.602;2024-01-30T03:57:45;53.53;;;22.70;;
77051;SDS011;65980;44.898;8.602;2024-01-30T04:00:49;67.93;;;23.13;;
77051;SDS011;65980;44.898;8.602;2024-01-30T04:03:53;54.63;;;23.23;;
77051;SDS011;65980;44.898;8.602;2024-01-30T04:06:57;71.10;;;23.50;;
77051;SDS011;65980;44.898;8.602;2024-01-30T04:10:02;47.17;;;22.23;;
77051;SDS011;65980;44.898;8.602;2024-01-30T04:13:09;51.35;;;22.55;;
77051;SDS011;65980;44.898;8.602;2024-01-30T04:16:20;57.03;;;23.75;;
77051;SDS011;65980;44.898;8.602;2024-01-30T04:19:27;70.57;;;23.48;;
77051;SDS011;65980;44.898;8.602;2024-01-30T04:22:31;55.95;;;22.38;;
77051;SDS011;65980;44.898;8.602;2024-01-30T04:25:35;55.70;;;22.23;;
77051;SDS011;65980;44.898;8.602;2024-01-30T04:28:43;63.72;;;24.35;;
77051;SDS011;65980;44.898;8.602;2024-01-30T04:31:48;57.80;;;23.80;;
77051;SDS011;65980;44.898;8.602;2024-01-30T04:34:53;58.10;;;24.30;;
77051;SDS011;65980;44.898;8.602;2024-01-30T04:37:57;60.92;;;24.48;;
77051;SDS011;65980;44.898;8.602;2024-01-30T04:41:01;105.05;;;24.60;;
77051;SDS011;65980;44.898;8.602;2024-01-30T04:44:05;58.30;;;21.65;;
77051;SDS011;65980;44.898;8.602;2024-01-30T04:47:10;113.68;;;25.85;;
77051;SDS011;65980;44.898;8.602;2024-01-30T04:50:15;78.65;;;24.17;;
77051;SDS011;65980;44.898;8.602;2024-01-30T04:53:19;55.97;;;24.40;;
77051;SDS011;65980;44.898;8.602;2024-01-30T04:56:23;97.47;;;25.50;;
77051;SDS011;65980;44.898;8.602;2024-01-30T04:59:27;64.07;;;24.38;;
77051;SDS011;65980;44.898;8.602;2024-01-30T05:02:31;66.47;;;24.25;;
77051;SDS011;65980;44.898;8.602;2024-01-30T05:05:36;107.15;;;26.25;;
77051;SDS011;65980;44.898;8.602;2024-01-30T05:08:40;85.93;;;25.25;;
77051;SDS011;65980;44.898;8.602;2024-01-30T05:11:44;83.85;;;25.10;;
77051;SDS011;65980;44.898;8.602;2024-01-30T05:14:48;69.30;;;26.67;;
77051;SDS011;65980;44.898;8.602;2024-01-30T05:17:52;82.60;;;25.83;;
77051;SDS011;65980;44.898;8.602;2024-01-30T05:20:57;84.78;;;26.42;;
77051;SDS011;65980;44.898;8.602;2024-01-30T05:24:02;71.10;;;25.88;;
77051;SDS011;65980;44.898;8.602;2024-01-30T05:27:06;104.05;;;26.60;;
77051;SDS011;65980;44.898;8.602;2024-01-30T05:30:10;75.60;;;25.58;;
77051;SDS011;65980;44.898;8.602;2024-01-30T05:33:14;111.18;;;30.00;;
77051;SDS011;65980;44.898;8.602;2024-01-30T05:36:19;72.80;;;25.08;;
77051;SDS011;65980;44.898;8.602;2024-01-30T05:39:24;74.90;;;27.83;;
77051;SDS011;65980;44.898;8.602;2024-01-30T05:42:28;90.60;;;28.95;;
77051;SDS011;65980;44.898;8.602;2024-01-30T05:45:32;64.45;;;24.58;;
77051;SDS011;65980;44.898;8.602;2024-01-30T05:48:36;74.78;;;26.40;;
77051;SDS011;65980;44.898;8.602;2024-01-30T05:51:40;85.15;;;28.00;;
77051;SDS011;65980;44.898;8.602;2024-01-30T05:54:44;74.07;;;25.83;;
77051;SDS011;65980;44.898;8.602;2024-01-30T05:57:48;81.78;;;26.63;;
77051;SDS011;65980;44.898;8.602;2024-01-30T06:00:52;89.22;;;25.90;;
77051;SDS011;65980;44.898;8.602;2024-01-30T06:03:56;65.38;;;24.63;;
77051;SDS011;65980;44.898;8.602;2024-01-30T06:07:02;60.72;;;23.73;;
77051;SDS011;65980;44.898;8.602;2024-01-30T06:10:08;58.45;;;23.60;;
77051;SDS011;65980;44.898;8.602;2024-01-30T06:13:13;74.53;;;25.58;;
77051;SDS011;65980;44.898;8.602;2024-01-30T06:16:21;81.10;;;25.67;;
77051;SDS011;65980;44.898;8.602;2024-01-30T06:19:26;59.53;;;20.90;;
77051;SDS011;65980;44.898;8.602;2024-01-30T06:22:30;67.30;;;22.75;;
77051;SDS011;65980;44.898;8.602;2024-01-30T06:25:34;63.17;;;24.17;;
77051;SDS011;65980;44.898;8.602;2024-01-30T06:28:38;78.90;;;24.05;;
77051;SDS011;65980;44.898;8.602;2024-01-30T06:31:42;73.93;;;22.45;;
77051;SDS011;65980;44.898;8.602;2024-01-30T06:34:47;74.97;;;20.85;;
77051;SDS011;65980;44.898;8.602;2024-01-30T06:37:51;54.75;;;20.67;;
77051;SDS011;65980;44.898;8.602;2024-01-30T06:40:55;52.67;;;19.83;;
77051;SDS011;65980;44.898;8.602;2024-01-30T06:44:04;43.75;;;16.73;;
77051;SDS011;65980;44.898;8.602;2024-01-30T06:47:10;83.78;;;20.65;;
77051;SDS011;65980;44.898;8.602;2024-01-30T06:50:15;70.32;;;21.30;;
77051;SDS011;65980;44.898;8.602;2024-01-30T06:54:14;68.88;;;18.90;;
77051;SDS011;65980;44.898;8.602;2024-01-30T06:57:18;43.83;;;17.88;;
77051;SDS011;65980;44.898;8.602;2024-01-30T07:00:22;59.28;;;18.60;;
77051;SDS011;65980;44.898;8.602;2024-01-30T07:03:27;63.08;;;19.15;;
77051;SDS011;65980;44.898;8.602;2024-01-30T07:06:31;48.60;;;18.40;;
77051;SDS011;65980;44.898;8.602;2024-01-30T07:09:35;51.20;;;17.67;;
77051;SDS011;65980;44.898;8.602;2024-01-30T07:12:40;52.42;;;18.83;;
77051;SDS011;65980;44.898;8.602;2024-01-30T07:15:49;63.10;;;18.55;;
77051;SDS011;65980;44.898;8.602;2024-01-30T07:18:54;70.90;;;18.98;;
77051;SDS011;65980;44.898;8.602;2024-01-30T07:22:00;64.18;;;19.38;;
77051;SDS011;65980;44.898;8.602;2024-01-30T07:25:05;47.00;;;19.05;;
77051;SDS011;65980;44.898;8.602;2024-01-30T07:28:10;43.40;;;17.75;;
77051;SDS011;65980;44.898;8.602;2024-01-30T07:31:16;52.92;;;18.98;;
77051;SDS011;65980;44.898;8.602;2024-01-30T07:34:21;53.83;;;19.77;;
77051;SDS011;65980;44.898;8.602;2024-01-30T07:37:26;48.45;;;17.25;;
77051;SDS011;65980;44.898;8.602;2024-01-30T07:40:32;58.33;;;18.40;;
77051;SDS011;65980;44.898;8.602;2024-01-30T07:43:38;64.57;;;20.98;;
77051;SDS011;65980;44.898;8.602;2024-01-30T07:46:42;47.22;;;18.60;;
77051;SDS011;65980;44.898;8.602;2024-01-30T07:49:49;46.03;;;18.05;;
77051;SDS011;65980;44.898;8.602;2024-01-30T07:52:58;43.35;;;17.70;;
77051;SDS011;65980;44.898;8.602;2024-01-30T07:56:05;50.60;;;18.58;;
77051;SDS011;65980;44.898;8.602;2024-01-30T07:59:21;47.13;;;17.58;;
77051;SDS011;65980;44.898;8.602;2024-01-30T08:02:29;64.50;;;20.35;;
77051;SDS011;65980;44.898;8.602;2024-01-30T08:05:39;51.63;;;18.67;;
77051;SDS011;65980;44.898;8.602;2024-01-30T08:12:01;39.92;;;17.20;;
77051;SDS011;65980;44.898;8.602;2024-01-30T08:15:09;46.00;;;20.65;;
77051;SDS011;65980;44.898;8.602;2024-01-30T08:18:21;44.08;;;18.17;;
77051;SDS011;65980;44.898;8.602;2024-01-30T08:21:35;42.72;;;18.70;;
77051;SDS011;65980;44.898;8.602;2024-01-30T08:24:48;40.75;;;18.20;;
77051;SDS011;65980;44.898;8.602;2024-01-30T08:28:01;35.30;;;16.45;;
77051;SDS011;65980;44.898;8.602;2024-01-30T08:31:07;39.03;;;17.63;;
77051;SDS011;65980;44.898;8.602;2024-01-30T08:34:14;42.58;;;18.60;;
77051;SDS011;65980;44.898;8.602;2024-01-30T08:37:20;46.83;;;19.33;;
77051;SDS011;65980;44.898;8.602;2024-01-30T08:40:25;57.45;;;20.73;;
77051;SDS011;65980;44.898;8.602;2024-01-30T08:43:30;46.72;;;18.20;;
77051;SDS011;65980;44.898;8.602;2024-01-30T08:46:34;56.60;;;18.67;;
77051;SDS011;65980;44.898;8.602;2024-01-30T08:49:39;49.80;;;22.70;;
77051;SDS011;65980;44.898;8.602;2024-01-30T08:52:45;52.60;;;21.33;;
77051;SDS011;65980;44.898;8.602;2024-01-30T08:55:50;47.72;;;19.73;;
77051;SDS011;65980;44.898;8.602;2024-01-30T08:58:55;51.00;;;20.83;;
77051;SDS011;65980;44.898;8.602;2024-01-30T09:02:10;52.38;;;21.38;;
77051;SDS011;65980;44.898;8.602;2024-01-30T09:06:08;65.00;;;25.20;;
77051;SDS011;65980;44.898;8.602;2024-01-30T09:09:15;54.83;;;22.73;;
77051;SDS011;65980;44.898;8.602;2024-01-30T09:12:21;60.20;;;24.52;;
77051;SDS011;65980;44.898;8.602;2024-01-30T09:15:25;61.13;;;27.20;;
77051;SDS011;65980;44.898;8.602;2024-01-30T09:18:29;62.45;;;25.60;;
77051;SDS011;65980;44.898;8.602;2024-01-30T09:21:38;54.53;;;24.05;;
77051;SDS011;65980;44.898;8.602;2024-01-30T09:28:15;54.80;;;24.52;;
77051;SDS011;65980;44.898;8.602;2024-01-30T09:36:18;51.15;;;23.13;;
77051;SDS011;65980;44.898;8.602;2024-01-30T09:41:09;53.55;;;25.88;;
77051;SDS011;65980;44.898;8.602;2024-01-30T09:44:16;55.03;;;23.60;;
77051;SDS011;65980;44.898;8.602;2024-01-30T09:47:22;53.97;;;26.35;;
77051;SDS011;65980;44.898;8.602;2024-01-30T09:50:27;54.45;;;25.50;;
77051;SDS011;65980;44.898;8.602;2024-01-30T09:57:11;56.92;;;25.10;;
77051;SDS011;65980;44.898;8.602;2024-01-30T10:00:19;61.88;;;26.08;;
77051;SDS011;65980;44.898;8.602;2024-01-30T10:03:55;61.07;;;26.63;;
77051;SDS011;65980;44.898;8.602;2024-01-30T10:07:12;56.00;;;25.45;;
77051;SDS011;65980;44.898;8.602;2024-01-30T10:10:18;60.08;;;27.88;;
77051;SDS011;65980;44.898;8.602;2024-01-30T10:13:30;54.60;;;26.20;;
77051;SDS011;65980;44.898;8.602;2024-01-30T10:16:35;58.78;;;25.92;;
77051;SDS011;65980;44.898;8.602;2024-01-30T10:19:40;56.85;;;27.95;;
77051;SDS011;65980;44.898;8.602;2024-01-30T10:22:44;52.22;;;26.10;;
77051;SDS011;65980;44.898;8.602;2024-01-30T10:25:55;53.85;;;26.50;;
77051;SDS011;65980;44.898;8.602;2024-01-30T10:29:02;56.67;;;26.27;;
77051;SDS011;65980;44.898;8.602;2024-01-30T10:32:06;53.00;;;26.85;;
77051;SDS011;65980;44.898;8.602;2024-01-30T10:35:18;60.75;;;27.63;;
77051;SDS011;65980;44.898;8.602;2024-01-30T10:38:34;56.25;;;26.92;;
77051;SDS011;65980;44.898;8.602;2024-01-30T10:41:43;58.63;;;26.88;;
77051;SDS011;65980;44.898;8.602;2024-01-30T10:49:21;63.30;;;30.50;;
77051;SDS011;65980;44.898;8.602;2024-01-30T10:55:59;56.28;;;27.95;;
77051;SDS011;65980;44.898;8.602;2024-01-30T10:59:06;59.22;;;30.83;;
77051;SDS011;65980;44.898;8.602;2024-01-30T11:02:11;60.72;;;29.17;;
77051;SDS011;65980;44.898;8.602;2024-01-30T11:05:48;63.72;;;32.28;;
77051;SDS011;65980;44.898;8.602;2024-01-30T11:09:04;68.70;;;32.85;;
77051;SDS011;65980;44.898;8.602;2024-01-30T11:12:21;65.15;;;32.22;;
77051;SDS011;65980;44.898;8.602;2024-01-30T11:15:28;65.32;;;30.15;;
77051;SDS011;65980;44.898;8.602;2024-01-30T11:18:35;72.60;;;32.47;;
77051;SDS011;65980;44.898;8.602;2024-01-30T11:21:46;70.43;;;33.00;;
77051;SDS011;65980;44.898;8.602;2024-01-30T11:25:24;68.72;;;34.53;;
77051;SDS011;65980;44.898;8.602;2024-01-30T11:32:16;77.40;;;36.97;;
77051;SDS011;65980;44.898;8.602;2024-01-30T11:35:38;79.30;;;37.53;;
77051;SDS011;65980;44.898;8.602;2024-01-30T11:38:54;80.55;;;39.70;;
77051;SDS011;65980;44.898;8.602;2024-01-30T11:42:10;81.57;;;39.70;;
77051;SDS011;65980;44.898;8.602;2024-01-30T11:45:21;83.55;;;40.83;;
77051;SDS011;65980;44.898;8.602;2024-01-30T11:48:31;85.72;;;40.67;;
77051;SDS011;65980;44.898;8.602;2024-01-30T11:51:36;87.05;;;41.70;;
77051;SDS011;65980;44.898;8.602;2024-01-30T11:54:43;95.57;;;43.78;;
77051;SDS011;65980;44.898;8.602;2024-01-30T11:57:49;89.95;;;42.90;;
77051;SDS011;65980;44.898;8.602;2024-01-30T12:00:57;92.28;;;42.00;;
77051;SDS011;65980;44.898;8.602;2024-01-30T12:04:03;85.75;;;38.38;;
77051;SDS011;65980;44.898;8.602;2024-01-30T12:07:24;84.55;;;40.97;;
77051;SDS011;65980;44.898;8.602;2024-01-30T12:10:33;89.95;;;39.95;;
77051;SDS011;65980;44.898;8.602;2024-01-30T12:13:41;86.80;;;40.53;;
77051;SDS011;65980;44.898;8.602;2024-01-30T12:16:48;89.07;;;40.67;;
77051;SDS011;65980;44.898;8.602;2024-01-30T12:23:53;88.80;;;40.40;;
77051;SDS011;65980;44.898;8.602;2024-01-30T12:27:30;80.63;;;36.45;;
77051;SDS011;65980;44.898;8.602;2024-01-30T12:35:21;73.93;;;37.80;;
77051;SDS011;65980;44.898;8.602;2024-01-30T12:38:25;70.22;;;36.90;;
77051;SDS011;65980;44.898;8.602;2024-01-30T12:45:36;78.20;;;38.85;;
77051;SDS011;65980;44.898;8.602;2024-01-30T12:48:41;76.53;;;36.30;;
77051;SDS011;65980;44.898;8.602;2024-01-30T12:51:45;73.65;;;38.13;;
77051;SDS011;65980;44.898;8.602;2024-01-30T12:54:49;77.68;;;38.80;;
77051;SDS011;65980;44.898;8.602;2024-01-30T12:57:59;75.30;;;39.55;;
77051;SDS011;65980;44.898;8.602;2024-01-30T13:01:05;80.68;;;40.28;;
77051;SDS011;65980;44.898;8.602;2024-01-30T13:04:10;82.13;;;39.55;;
77051;SDS011;65980;44.898;8.602;2024-01-30T13:07:15;78.00;;;40.10;;
77051;SDS011;65980;44.898;8.602;2024-01-30T13:10:20;84.60;;;41.67;;
77051;SDS011;65980;44.898;8.602;2024-01-30T13:13:24;81.28;;;42.42;;
77051;SDS011;65980;44.898;8.602;2024-01-30T13:16:31;79.43;;;41.95;;
77051;SDS011;65980;44.898;8.602;2024-01-30T13:19:35;91.35;;;44.08;;
77051;SDS011;65980;44.898;8.602;2024-01-30T13:34:19;86.93;;;47.67;;
77051;SDS011;65980;44.898;8.602;2024-01-30T13:37:23;91.47;;;47.55;;
77051;SDS011;65980;44.898;8.602;2024-01-30T13:41:01;91.82;;;47.67;;
77051;SDS011;65980;44.898;8.602;2024-01-30T13:44:08;86.47;;;45.80;;
77051;SDS011;65980;44.898;8.602;2024-01-30T13:47:34;93.00;;;48.63;;
77051;SDS011;65980;44.898;8.602;2024-01-30T13:54:36;89.00;;;46.35;;
77051;SDS011;65980;44.898;8.602;2024-01-30T13:57:48;82.57;;;45.08;;
77051;SDS011;65980;44.898;8.602;2024-01-30T14:04:32;92.63;;;47.33;;
77051;SDS011;65980;44.898;8.602;2024-01-30T14:12:26;86.35;;;44.50;;
77051;SDS011;65980;44.898;8.602;2024-01-30T14:15:31;87.97;;;47.10;;
77051;SDS011;65980;44.898;8.602;2024-01-30T14:18:35;83.65;;;44.20;;
77051;SDS011;65980;44.898;8.602;2024-01-30T14:25:23;81.05;;;41.60;;
77051;SDS011;65980;44.898;8.602;2024-01-30T14:28:30;84.68;;;41.92;;
77051;SDS011;65980;44.898;8.602;2024-01-30T14:31:57;83.60;;;41.55;;
77051;SDS011;65980;44.898;8.602;2024-01-30T14:39:32;84.43;;;40.35;;
77051;SDS011;65980;44.898;8.602;2024-01-30T14:46:15;86.57;;;39.85;;
77051;SDS011;65980;44.898;8.602;2024-01-30T14:49:31;81.95;;;41.53;;
77051;SDS011;65980;44.898;8.602;2024-01-30T14:52:39;77.43;;;41.80;;
77051;SDS011;65980;44.898;8.602;2024-01-30T14:55:44;84.28;;;42.78;;
77051;SDS011;65980;44.898;8.602;2024-01-30T14:58:50;81.93;;;41.88;;
77051;SDS011;65980;44.898;8.602;2024-01-30T15:02:07;85.97;;;42.60;;
77051;SDS011;65980;44.898;8.602;2024-01-30T15:05:12;84.82;;;41.38;;
77051;SDS011;65980;44.898;8.602;2024-01-30T15:08:17;85.28;;;41.72;;
77051;SDS011;65980;44.898;8.602;2024-01-30T15:11:22;86.32;;;41.92;;
77051;SDS011;65980;44.898;8.602;2024-01-30T15:14:32;88.80;;;43.53;;
77051;SDS011;65980;44.898;8.602;2024-01-30T15:17:40;100.40;;;45.30;;
77051;SDS011;65980;44.898;8.602;2024-01-30T15:21:02;97.20;;;47.55;;
77051;SDS011;65980;44.898;8.602;2024-01-30T15:24:17;82.13;;;43.35;;
77051;SDS011;65980;44.898;8.602;2024-01-30T15:30:55;86.25;;;42.75;;
77051;SDS011;65980;44.898;8.602;2024-01-30T15:37:33;83.22;;;41.88;;
77051;SDS011;65980;44.898;8.602;2024-01-30T15:40:37;80.85;;;41.97;;
77051;SDS011;65980;44.898;8.602;2024-01-30T15:43:55;90.03;;;42.03;;
77051;SDS011;65980;44.898;8.602;2024-01-30T15:47:40;81.10;;;40.58;;
77051;SDS011;65980;44.898;8.602;2024-01-30T15:50:44;77.75;;;40.42;;
77051;SDS011;65980;44.898;8.602;2024-01-30T15:53:56;79.00;;;40.53;;
77051;SDS011;65980;44.898;8.602;2024-01-30T15:57:04;81.00;;;41.97;;
77051;SDS011;65980;44.898;8.602;2024-01-30T16:00:11;80.90;;;41.38;;
77051;SDS011;65980;44.898;8.602;2024-01-30T16:03:16;88.30;;;43.33;;
77051;SDS011;65980;44.898;8.602;2024-01-30T16:06:21;84.80;;;43.35;;
77051;SDS011;65980;44.898;8.602;2024-01-30T16:09:28;91.95;;;42.28;;
77051;SDS011;65980;44.898;8.602;2024-01-30T16:12:33;89.55;;;45.60;;
77051;SDS011;65980;44.898;8.602;2024-01-30T16:15:38;97.25;;;47.65;;
77051;SDS011;65980;44.898;8.602;2024-01-30T16:18:44;91.38;;;48.65;;
77051;SDS011;65980;44.898;8.602;2024-01-30T16:21:48;104.40;;;51.08;;
77051;SDS011;65980;44.898;8.602;2024-01-30T16:24:53;102.63;;;49.00;;
77051;SDS011;65980;44.898;8.602;2024-01-30T16:27:57;97.10;;;50.60;;
77051;SDS011;65980;44.898;8.602;2024-01-30T16:31:02;97.05;;;49.47;;
77051;SDS011;65980;44.898;8.602;2024-01-30T16:34:07;93.20;;;47.95;;
77051;SDS011;65980;44.898;8.602;2024-01-30T16:37:11;95.38;;;46.90;;
77051;SDS011;65980;44.898;8.602;2024-01-30T16:40:15;94.97;;;47.15;;
77051;SDS011;65980;44.898;8.602;2024-01-30T16:43:19;87.63;;;46.33;;
77051;SDS011;65980;44.898;8.602;2024-01-30T16:46:23;87.05;;;45.88;;
77051;SDS011;65980;44.898;8.602;2024-01-30T16:49:27;105.22;;;51.25;;
77051;SDS011;65980;44.898;8.602;2024-01-30T16:52:31;113.50;;;56.00;;
77051;SDS011;65980;44.898;8.602;2024-01-30T16:55:35;123.50;;;60.30;;
77051;SDS011;65980;44.898;8.602;2024-01-30T16:58:40;123.55;;;60.70;;
77051;SDS011;65980;44.898;8.602;2024-01-30T17:01:44;112.97;;;55.92;;
77051;SDS011;65980;44.898;8.602;2024-01-30T17:04:51;110.35;;;56.05;;
77051;SDS011;65980;44.898;8.602;2024-01-30T17:07:56;107.80;;;54.80;;
77051;SDS011;65980;44.898;8.602;2024-01-30T17:11:03;111.95;;;55.65;;
77051;SDS011;65980;44.898;8.602;2024-01-30T17:14:08;114.18;;;55.88;;
77051;SDS011;65980;44.898;8.602;2024-01-30T17:17:13;110.63;;;54.42;;
77051;SDS011;65980;44.898;8.602;2024-01-30T17:20:18;115.43;;;57.53;;
77051;SDS011;65980;44.898;8.602;2024-01-30T17:23:24;114.30;;;58.10;;
77051;SDS011;65980;44.898;8.602;2024-01-30T17:26:30;125.00;;;60.55;;
77051;SDS011;65980;44.898;8.602;2024-01-30T17:29:35;151.38;;;68.07;;
77051;SDS011;65980;44.898;8.602;2024-01-30T17:32:40;188.23;;;82.40;;
77051;SDS011;65980;44.898;8.602;2024-01-30T17:35:45;195.98;;;84.72;;
77051;SDS011;65980;44.898;8.602;2024-01-30T17:38:50;158.80;;;69.68;;
77051;SDS011;65980;44.898;8.602;2024-01-30T17:41:55;117.03;;;57.55;;
77051;SDS011;65980;44.898;8.602;2024-01-30T17:44:59;110.45;;;52.67;;
77051;SDS011;65980;44.898;8.602;2024-01-30T17:48:06;108.40;;;50.92;;
77051;SDS011;65980;44.898;8.602;2024-01-30T17:51:14;112.22;;;55.65;;
77051;SDS011;65980;44.898;8.602;2024-01-30T17:54:19;100.57;;;50.60;;
77051;SDS011;65980;44.898;8.602;2024-01-30T17:57:24;106.32;;;52.38;;
77051;SDS011;65980;44.898;8.602;2024-01-30T18:00:29;98.88;;;47.00;;
77051;SDS011;65980;44.898;8.602;2024-01-30T18:03:37;111.00;;;54.33;;
77051;SDS011;65980;44.898;8.602;2024-01-30T18:06:42;111.90;;;55.13;;
77051;SDS011;65980;44.898;8.602;2024-01-30T18:09:57;115.97;;;53.70;;
77051;SDS011;65980;44.898;8.602;2024-01-30T18:13:02;109.60;;;51.33;;
77051;SDS011;65980;44.898;8.602;2024-01-30T18:16:11;97.18;;;46.05;;
77051;SDS011;65980;44.898;8.602;2024-01-30T18:19:16;97.50;;;48.22;;
77051;SDS011;65980;44.898;8.602;2024-01-30T18:22:21;104.22;;;48.72;;
77051;SDS011;65980;44.898;8.602;2024-01-30T18:25:26;99.50;;;47.95;;
77051;SDS011;65980;44.898;8.602;2024-01-30T18:28:31;105.88;;;49.00;;
77051;SDS011;65980;44.898;8.602;2024-01-30T18:31:36;105.88;;;50.15;;
77051;SDS011;65980;44.898;8.602;2024-01-30T18:34:45;102.50;;;48.78;;
77051;SDS011;65980;44.898;8.602;2024-01-30T18:37:49;106.97;;;50.63;;
77051;SDS011;65980;44.898;8.602;2024-01-30T18:40:54;100.22;;;48.83;;
77051;SDS011;65980;44.898;8.602;2024-01-30T18:43:58;96.40;;;48.17;;
77051;SDS011;65980;44.898;8.602;2024-01-30T18:47:03;99.05;;;47.60;;
77051;SDS011;65980;44.898;8.602;2024-01-30T18:50:08;104.28;;;49.22;;
77051;SDS011;65980;44.898;8.602;2024-01-30T18:53:14;103.68;;;49.80;;
77051;SDS011;65980;44.898;8.602;2024-01-30T18:56:19;108.43;;;49.95;;
77051;SDS011;65980;44.898;8.602;2024-01-30T18:59:24;102.95;;;48.13;;
77051;SDS011;65980;44.898;8.602;2024-01-30T19:02:30;103.93;;;48.15;;
77051;SDS011;65980;44.898;8.602;2024-01-30T19:05:34;99.53;;;48.53;;
77051;SDS011;65980;44.898;8.602;2024-01-30T19:08:40;107.63;;;52.35;;
77051;SDS011;65980;44.898;8.602;2024-01-30T19:11:45;101.85;;;51.80;;
77051;SDS011;65980;44.898;8.602;2024-01-30T19:14:50;99.35;;;49.33;;
77051;SDS011;65980;44.898;8.602;2024-01-30T19:17:56;102.22;;;49.83;;
77051;SDS011;65980;44.898;8.602;2024-01-30T19:21:00;106.20;;;51.15;;
77051;SDS011;65980;44.898;8.602;2024-01-30T19:24:04;99.18;;;49.05;;
77051;SDS011;65980;44.898;8.602;2024-01-30T19:27:09;102.50;;;50.67;;
77051;SDS011;65980;44.898;8.602;2024-01-30T19:30:13;104.55;;;50.22;;
77051;SDS011;65980;44.898;8.602;2024-01-30T19:33:19;105.15;;;50.13;;
77051;SDS011;65980;44.898;8.602;2024-01-30T19:36:23;91.07;;;46.95;;